sensor_id;sensor_type;location;lat;lon;timestamp;P1;durP1;ratioP1;P2;durP2;ratioP2
48667;SDS011;34453;52.198;5.004;2023-07-13T00:01:57;18.70;;;3.10;;
48667;SDS011;34453;52.198;5.004;2023-07-13T00:04:24;18.10;;;4.00;;
48667;SDS011;34453;52.198;5.004;2023-07-13T00:06:51;18.00;;;3.15;;
48667;SDS011;34453;52.198;5.004;2023-07-13T00:09:17;16.98;;;3.92;;
48667;SDS011;34453;52.198;5.004;2023-07-13T00:11:44;20.42;;;3.47;;
48667;SDS011;34453;52.198;5.004;2023-07-13T00:14:32;22.52;;;4.38;;
48667;SDS011;34453;52.198;5.004;2023-07-13T00:17:04;17.70;;;3.72;;
48667;SDS011;34453;52.198;5.004;2023-07-13T00:19:30;19.33;;;4.18;;
48667;SDS011;34453;52.198;5.004;2023-07-13T00:21:55;15.77;;;3.05;;
48667;SDS011;34453;52.198;5.004;2023-07-13T00:24:21;13.25;;;4.10;;
48667;SDS011;34453;52.198;5.004;2023-07-13T00:26:48;18.00;;;3.80;;
48667;SDS011;34453;52.198;5.004;2023-07-13T00:29:14;29.02;;;4.30;;
48667;SDS011;34453;52.198;5.004;2023-07-13T00:31:50;15.02;;;3.28;;
48667;SDS011;34453;52.198;5.004;2023-07-13T00:34:17;18.33;;;3.78;;
48667;SDS011;34453;52.198;5.004;2023-07-13T00:36:44;14.88;;;3.42;;
48667;SDS011;34453;52.198;5.004;2023-07-13T00:39:10;22.77;;;3.47;;
48667;SDS011;34453;52.198;5.004;2023-07-13T00:41:39;19.40;;;4.28;;
48667;SDS011;34453;52.198;5.004;2023-07-13T00:44:04;14.45;;;3.67;;
48667;SDS011;34453;52.198;5.004;2023-07-13T00:46:31;15.93;;;4.07;;
48667;SDS011;34453;52.198;5.004;2023-07-13T00:49:00;19.38;;;5.65;;
48667;SDS011;34453;52.198;5.004;2023-07-13T00:51:48;25.25;;;4.15;;
48667;SDS011;34453;52.198;5.004;2023-07-13T00:54:21;17.08;;;4.50;;
48667;SDS011;34453;52.198;5.004;2023-07-13T00:56:51;19.30;;;5.45;;
48667;SDS011;34453;52.198;5.004;2023-07-13T00:59:20;16.95;;;3.72;;
48667;SDS011;34453;52.198;5.004;2023-07-13T01:01:47;18.23;;;3.83;;
48667;SDS011;34453;52.198;5.004;2023-07-13T01:04:14;21.95;;;4.20;;
48667;SDS011;34453;52.198;5.004;2023-07-13T01:06:40;23.45;;;4.30;;
48667;SDS011;34453;52.198;5.004;2023-07-13T01:09:09;20.40;;;4.55;;
48667;SDS011;34453;52.198;5.004;2023-07-13T01:11:35;16.15;;;4.40;;
48667;SDS011;34453;52.198;5.004;2023-07-13T01:14:02;20.58;;;3.55;;
48667;SDS011;34453;52.198;5.004;2023-07-13T01:16:34;17.33;;;3.78;;
48667;SDS011;34453;52.198;5.004;2023-07-13T01:19:02;15.40;;;3.38;;
48667;SDS011;34453;52.198;5.004;2023-07-13T01:21:38;17.83;;;3.55;;
48667;SDS011;34453;52.198;5.004;2023-07-13T01:24:08;18.00;;;3.50;;
48667;SDS011;34453;52.198;5.004;2023-07-13T01:26:34;19.23;;;5.28;;
48667;SDS011;34453;52.198;5.004;2023-07-13T01:28:59;13.18;;;3.88;;
48667;SDS011;34453;52.198;5.004;2023-07-13T01:31:25;20.25;;;5.45;;
48667;SDS011;34453;52.198;5.004;2023-07-13T01:33:51;18.02;;;4.80;;
48667;SDS011;34453;52.198;5.004;2023-07-13T01:36:17;24.23;;;4.40;;
48667;SDS011;34453;52.198;5.004;2023-07-13T01:38:42;13.75;;;4.60;;
48667;SDS011;34453;52.198;5.004;2023-07-13T01:41:08;16.80;;;3.85;;
48667;SDS011;34453;52.198;5.004;2023-07-13T01:43:34;13.80;;;3.40;;
48667;SDS011;34453;52.198;5.004;2023-07-13T01:46:03;11.82;;;3.47;;
48667;SDS011;34453;52.198;5.004;2023-07-13T01:48:29;19.20;;;4.35;;
48667;SDS011;34453;52.198;5.004;2023-07-13T01:50:54;11.77;;;4.10;;
48667;SDS011;34453;52.198;5.004;2023-07-13T01:53:20;24.55;;;4.15;;
48667;SDS011;34453;52.198;5.004;2023-07-13T01:55:45;15.98;;;3.30;;
48667;SDS011;34453;52.198;5.004;2023-07-13T01:58:11;17.67;;;4.47;;
48667;SDS011;34453;52.198;5.004;2023-07-13T02:00:38;16.45;;;3.13;;
48667;SDS011;34453;52.198;5.004;2023-07-13T02:03:04;22.35;;;4.10;;
48667;SDS011;34453;52.198;5.004;2023-07-13T02:05:29;23.40;;;4.30;;
48667;SDS011;34453;52.198;5.004;2023-07-13T02:07:55;17.17;;;3.13;;
48667;SDS011;34453;52.198;5.004;2023-07-13T02:10:24;13.70;;;3.35;;
48667;SDS011;34453;52.198;5.004;2023-07-13T02:12:53;11.43;;;3.38;;
48667;SDS011;34453;52.198;5.004;2023-07-13T02:15:19;19.08;;;3.40;;
48667;SDS011;34453;52.198;5.004;2023-07-13T02:17:44;16.27;;;3.88;;
48667;SDS011;34453;52.198;5.004;2023-07-13T02:20:11;20.02;;;2.95;;
48667;SDS011;34453;52.198;5.004;2023-07-13T02:22:37;17.33;;;4.35;;
48667;SDS011;34453;52.198;5.004;2023-07-13T02:25:04;14.40;;;4.90;;
48667;SDS011;34453;52.198;5.004;2023-07-13T02:27:30;11.50;;;2.97;;
48667;SDS011;34453;52.198;5.004;2023-07-13T02:29:55;10.25;;;3.38;;
48667;SDS011;34453;52.198;5.004;2023-07-13T02:32:21;14.95;;;3.72;;
48667;SDS011;34453;52.198;5.004;2023-07-13T02:34:52;14.80;;;4.68;;
48667;SDS011;34453;52.198;5.004;2023-07-13T02:37:18;17.52;;;2.90;;
48667;SDS011;34453;52.198;5.004;2023-07-13T02:39:43;14.25;;;2.90;;
48667;SDS011;34453;52.198;5.004;2023-07-13T02:42:09;11.95;;;3.35;;
48667;SDS011;34453;52.198;5.004;2023-07-13T02:44:35;8.57;;;3.03;;
48667;SDS011;34453;52.198;5.004;2023-07-13T02:47:03;12.73;;;2.95;;
48667;SDS011;34453;52.198;5.004;2023-07-13T02:49:28;20.85;;;3.45;;
48667;SDS011;34453;52.198;5.004;2023-07-13T02:51:54;16.80;;;4.07;;
48667;SDS011;34453;52.198;5.004;2023-07-13T02:54:19;9.38;;;2.70;;
48667;SDS011;34453;52.198;5.004;2023-07-13T02:56:45;12.13;;;2.60;;
48667;SDS011;34453;52.198;5.004;2023-07-13T02:59:11;9.50;;;2.33;;
48667;SDS011;34453;52.198;5.004;2023-07-13T03:01:37;8.73;;;3.22;;
48667;SDS011;34453;52.198;5.004;2023-07-13T03:04:02;7.03;;;2.30;;
48667;SDS011;34453;52.198;5.004;2023-07-13T03:06:36;9.68;;;2.15;;
48667;SDS011;34453;52.198;5.004;2023-07-13T03:09:03;7.70;;;2.00;;
48667;SDS011;34453;52.198;5.004;2023-07-13T03:11:29;13.25;;;2.42;;
48667;SDS011;34453;52.198;5.004;2023-07-13T03:13:54;9.77;;;3.30;;
48667;SDS011;34453;52.198;5.004;2023-07-13T03:16:20;10.80;;;1.70;;
48667;SDS011;34453;52.198;5.004;2023-07-13T03:18:47;9.38;;;2.38;;
48667;SDS011;34453;52.198;5.004;2023-07-13T03:21:13;7.43;;;1.77;;
48667;SDS011;34453;52.198;5.004;2023-07-13T03:23:39;18.45;;;5.18;;
48667;SDS011;34453;52.198;5.004;2023-07-13T03:26:06;8.73;;;1.85;;
48667;SDS011;34453;52.198;5.004;2023-07-13T03:28:38;8.75;;;2.03;;
48667;SDS011;34453;52.198;5.004;2023-07-13T03:31:09;4.28;;;1.33;;
48667;SDS011;34453;52.198;5.004;2023-07-13T03:33:46;8.25;;;2.95;;
48667;SDS011;34453;52.198;5.004;2023-07-13T03:36:15;7.25;;;2.08;;
48667;SDS011;34453;52.198;5.004;2023-07-13T03:38:48;8.23;;;2.15;;
48667;SDS011;34453;52.198;5.004;2023-07-13T03:41:15;11.32;;;1.83;;
48667;SDS011;34453;52.198;5.004;2023-07-13T03:43:41;5.65;;;1.55;;
48667;SDS011;34453;52.198;5.004;2023-07-13T03:46:07;5.93;;;1.50;;
48667;SDS011;34453;52.198;5.004;2023-07-13T03:48:33;11.52;;;1.70;;
48667;SDS011;34453;52.198;5.004;2023-07-13T03:50:58;4.78;;;1.30;;
48667;SDS011;34453;52.198;5.004;2023-07-13T03:53:24;4.25;;;1.98;;
48667;SDS011;34453;52.198;5.004;2023-07-13T03:55:50;7.30;;;1.73;;
48667;SDS011;34453;52.198;5.004;2023-07-13T03:58:29;5.28;;;1.60;;
48667;SDS011;34453;52.198;5.004;2023-07-13T04:00:59;12.32;;;2.15;;
48667;SDS011;34453;52.198;5.004;2023-07-13T04:03:25;7.15;;;1.80;;
48667;SDS011;34453;52.198;5.004;2023-07-13T04:05:53;8.18;;;1.98;;
48667;SDS011;34453;52.198;5.004;2023-07-13T04:08:19;8.65;;;2.08;;
48667;SDS011;34453;52.198;5.004;2023-07-13T04:10:45;10.15;;;2.63;;
48667;SDS011;34453;52.198;5.004;2023-07-13T04:13:11;9.40;;;2.53;;
48667;SDS011;34453;52.198;5.004;2023-07-13T04:15:37;11.52;;;3.03;;
48667;SDS011;34453;52.198;5.004;2023-07-13T04:18:04;15.98;;;2.72;;
48667;SDS011;34453;52.198;5.004;2023-07-13T04:20:29;6.88;;;2.55;;
48667;SDS011;34453;52.198;5.004;2023-07-13T04:22:55;19.35;;;4.93;;
48667;SDS011;34453;52.198;5.004;2023-07-13T04:25:21;8.13;;;2.22;;
48667;SDS011;34453;52.198;5.004;2023-07-13T04:27:47;17.23;;;3.28;;
48667;SDS011;34453;52.198;5.004;2023-07-13T04:30:12;10.48;;;3.53;;
48667;SDS011;34453;52.198;5.004;2023-07-13T04:32:38;18.63;;;3.13;;
48667;SDS011;34453;52.198;5.004;2023-07-13T04:35:04;9.55;;;3.00;;
48667;SDS011;34453;52.198;5.004;2023-07-13T04:37:30;16.00;;;3.58;;
48667;SDS011;34453;52.198;5.004;2023-07-13T04:39:55;17.40;;;3.70;;
48667;SDS011;34453;52.198;5.004;2023-07-13T04:42:22;16.30;;;3.78;;
48667;SDS011;34453;52.198;5.004;2023-07-13T04:44:51;14.10;;;3.45;;
48667;SDS011;34453;52.198;5.004;2023-07-13T04:47:17;14.45;;;3.17;;
48667;SDS011;34453;52.198;5.004;2023-07-13T04:49:43;20.92;;;4.47;;
48667;SDS011;34453;52.198;5.004;2023-07-13T04:52:10;15.65;;;3.58;;
48667;SDS011;34453;52.198;5.004;2023-07-13T04:54:35;16.90;;;4.53;;
48667;SDS011;34453;52.198;5.004;2023-07-13T04:57:02;16.50;;;4.47;;
48667;SDS011;34453;52.198;5.004;2023-07-13T04:59:31;11.27;;;3.78;;
48667;SDS011;34453;52.198;5.004;2023-07-13T05:01:57;17.83;;;4.38;;
48667;SDS011;34453;52.198;5.004;2023-07-13T05:04:23;23.10;;;4.72;;
48667;SDS011;34453;52.198;5.004;2023-07-13T05:06:48;20.95;;;4.93;;
48667;SDS011;34453;52.198;5.004;2023-07-13T05:09:14;22.05;;;6.90;;
48667;SDS011;34453;52.198;5.004;2023-07-13T05:11:39;12.75;;;4.18;;
48667;SDS011;34453;52.198;5.004;2023-07-13T05:14:05;20.23;;;4.53;;
48667;SDS011;34453;52.198;5.004;2023-07-13T05:16:30;16.90;;;4.90;;
48667;SDS011;34453;52.198;5.004;2023-07-13T05:18:57;31.60;;;6.45;;
48667;SDS011;34453;52.198;5.004;2023-07-13T05:21:23;22.10;;;5.13;;
48667;SDS011;34453;52.198;5.004;2023-07-13T05:23:49;18.52;;;5.22;;
48667;SDS011;34453;52.198;5.004;2023-07-13T05:26:18;24.60;;;6.10;;
48667;SDS011;34453;52.198;5.004;2023-07-13T05:28:57;18.52;;;5.15;;
48667;SDS011;34453;52.198;5.004;2023-07-13T05:31:22;26.48;;;6.20;;
48667;SDS011;34453;52.198;5.004;2023-07-13T05:33:48;15.55;;;5.43;;
48667;SDS011;34453;52.198;5.004;2023-07-13T05:36:14;20.13;;;5.38;;
48667;SDS011;34453;52.198;5.004;2023-07-13T05:38:39;11.40;;;4.30;;
48667;SDS011;34453;52.198;5.004;2023-07-13T05:41:05;25.67;;;4.78;;
48667;SDS011;34453;52.198;5.004;2023-07-13T05:43:31;22.33;;;5.20;;
48667;SDS011;34453;52.198;5.004;2023-07-13T05:45:58;13.60;;;4.60;;
48667;SDS011;34453;52.198;5.004;2023-07-13T05:48:24;12.35;;;4.20;;
48667;SDS011;34453;52.198;5.004;2023-07-13T05:50:49;17.63;;;5.40;;
48667;SDS011;34453;52.198;5.004;2023-07-13T05:53:15;13.15;;;4.47;;
48667;SDS011;34453;52.198;5.004;2023-07-13T05:55:41;20.67;;;4.35;;
48667;SDS011;34453;52.198;5.004;2023-07-13T05:58:18;18.02;;;5.28;;
48667;SDS011;34453;52.198;5.004;2023-07-13T06:00:45;16.48;;;4.32;;
48667;SDS011;34453;52.198;5.004;2023-07-13T06:03:11;18.05;;;4.38;;
48667;SDS011;34453;52.198;5.004;2023-07-13T06:05:37;15.85;;;5.80;;
48667;SDS011;34453;52.198;5.004;2023-07-13T06:08:03;17.55;;;5.15;;
48667;SDS011;34453;52.198;5.004;2023-07-13T06:10:31;18.42;;;4.75;;
48667;SDS011;34453;52.198;5.004;2023-07-13T06:12:58;19.10;;;4.75;;
48667;SDS011;34453;52.198;5.004;2023-07-13T06:15:23;19.75;;;5.57;;
48667;SDS011;34453;52.198;5.004;2023-07-13T06:17:49;12.80;;;4.80;;
48667;SDS011;34453;52.198;5.004;2023-07-13T06:20:14;14.23;;;4.55;;
48667;SDS011;34453;52.198;5.004;2023-07-13T06:22:40;21.13;;;6.10;;
48667;SDS011;34453;52.198;5.004;2023-07-13T06:25:06;8.93;;;4.75;;
48667;SDS011;34453;52.198;5.004;2023-07-13T06:27:32;20.65;;;5.20;;
48667;SDS011;34453;52.198;5.004;2023-07-13T06:29:57;17.65;;;6.00;;
48667;SDS011;34453;52.198;5.004;2023-07-13T06:32:23;23.00;;;5.32;;
48667;SDS011;34453;52.198;5.004;2023-07-13T06:34:48;12.63;;;4.43;;
48667;SDS011;34453;52.198;5.004;2023-07-13T06:37:17;18.75;;;4.82;;
48667;SDS011;34453;52.198;5.004;2023-07-13T06:39:42;14.50;;;4.22;;
48667;SDS011;34453;52.198;5.004;2023-07-13T06:42:08;20.05;;;4.97;;
48667;SDS011;34453;52.198;5.004;2023-07-13T06:44:33;23.15;;;6.32;;
48667;SDS011;34453;52.198;5.004;2023-07-13T06:46:59;23.55;;;5.53;;
48667;SDS011;34453;52.198;5.004;2023-07-13T06:49:25;14.90;;;4.95;;
48667;SDS011;34453;52.198;5.004;2023-07-13T06:51:51;14.80;;;5.32;;
48667;SDS011;34453;52.198;5.004;2023-07-13T06:54:16;17.65;;;5.10;;
48667;SDS011;34453;52.198;5.004;2023-07-13T06:56:42;12.75;;;4.35;;
48667;SDS011;34453;52.198;5.004;2023-07-13T06:59:08;27.23;;;5.93;;
48667;SDS011;34453;52.198;5.004;2023-07-13T07:01:33;24.52;;;6.00;;
48667;SDS011;34453;52.198;5.004;2023-07-13T07:03:59;20.60;;;6.13;;
48667;SDS011;34453;52.198;5.004;2023-07-13T07:06:24;11.70;;;2.97;;
48667;SDS011;34453;52.198;5.004;2023-07-13T07:08:50;8.95;;;2.92;;
48667;SDS011;34453;52.198;5.004;2023-07-13T07:11:18;11.85;;;3.15;;
48667;SDS011;34453;52.198;5.004;2023-07-13T07:13:47;6.10;;;2.25;;
48667;SDS011;34453;52.198;5.004;2023-07-13T07:16:13;7.53;;;2.72;;
48667;SDS011;34453;52.198;5.004;2023-07-13T07:18:38;8.13;;;2.50;;
48667;SDS011;34453;52.198;5.004;2023-07-13T07:21:04;4.40;;;2.28;;
48667;SDS011;34453;52.198;5.004;2023-07-13T07:23:30;3.33;;;1.90;;
48667;SDS011;34453;52.198;5.004;2023-07-13T07:25:55;4.88;;;1.90;;
48667;SDS011;34453;52.198;5.004;2023-07-13T07:28:21;3.20;;;1.67;;
48667;SDS011;34453;52.198;5.004;2023-07-13T07:30:47;7.28;;;1.65;;
48667;SDS011;34453;52.198;5.004;2023-07-13T07:33:13;4.35;;;1.98;;
48667;SDS011;34453;52.198;5.004;2023-07-13T07:35:39;5.13;;;1.88;;
48667;SDS011;34453;52.198;5.004;2023-07-13T07:38:05;7.43;;;2.60;;
48667;SDS011;34453;52.198;5.004;2023-07-13T07:40:35;3.38;;;2.00;;
48667;SDS011;34453;52.198;5.004;2023-07-13T07:43:02;6.32;;;2.00;;
48667;SDS011;34453;52.198;5.004;2023-07-13T07:45:27;6.20;;;2.22;;
48667;SDS011;34453;52.198;5.004;2023-07-13T07:47:53;6.80;;;1.88;;
48667;SDS011;34453;52.198;5.004;2023-07-13T07:50:20;4.68;;;2.45;;
48667;SDS011;34453;52.198;5.004;2023-07-13T07:52:45;8.02;;;2.45;;
48667;SDS011;34453;52.198;5.004;2023-07-13T07:55:11;8.88;;;2.72;;
48667;SDS011;34453;52.198;5.004;2023-07-13T07:57:36;4.72;;;2.42;;
48667;SDS011;34453;52.198;5.004;2023-07-13T08:00:02;21.20;;;3.38;;
48667;SDS011;34453;52.198;5.004;2023-07-13T08:02:28;9.88;;;2.95;;
48667;SDS011;34453;52.198;5.004;2023-07-13T08:04:53;4.45;;;2.10;;
48667;SDS011;34453;52.198;5.004;2023-07-13T08:07:19;5.18;;;1.95;;
48667;SDS011;34453;52.198;5.004;2023-07-13T08:09:44;5.72;;;2.13;;
48667;SDS011;34453;52.198;5.004;2023-07-13T08:12:10;4.00;;;1.98;;
48667;SDS011;34453;52.198;5.004;2023-07-13T08:14:35;9.13;;;2.88;;
48667;SDS011;34453;52.198;5.004;2023-07-13T08:17:01;5.85;;;2.72;;
48667;SDS011;34453;52.198;5.004;2023-07-13T08:19:27;6.28;;;2.10;;
48667;SDS011;34453;52.198;5.004;2023-07-13T08:21:52;11.68;;;4.05;;
48667;SDS011;34453;52.198;5.004;2023-07-13T08:24:18;6.97;;;2.35;;
48667;SDS011;34453;52.198;5.004;2023-07-13T08:26:44;7.78;;;2.83;;
48667;SDS011;34453;52.198;5.004;2023-07-13T08:29:11;4.43;;;2.97;;
48667;SDS011;34453;52.198;5.004;2023-07-13T08:31:36;8.27;;;3.60;;
48667;SDS011;34453;52.198;5.004;2023-07-13T08:34:04;9.23;;;3.53;;
48667;SDS011;34453;52.198;5.004;2023-07-13T08:36:29;4.60;;;2.83;;
48667;SDS011;34453;52.198;5.004;2023-07-13T08:38:55;5.65;;;2.67;;
48667;SDS011;34453;52.198;5.004;2023-07-13T08:41:21;7.25;;;3.85;;
48667;SDS011;34453;52.198;5.004;2023-07-13T08:43:57;10.70;;;3.13;;
48667;SDS011;34453;52.198;5.004;2023-07-13T08:46:43;10.07;;;2.80;;
48667;SDS011;34453;52.198;5.004;2023-07-13T08:49:11;3.25;;;1.95;;
48667;SDS011;34453;52.198;5.004;2023-07-13T08:54:23;6.90;;;2.22;;
48667;SDS011;34453;52.198;5.004;2023-07-13T08:56:55;7.32;;;2.20;;
48667;SDS011;34453;52.198;5.004;2023-07-13T08:59:26;6.55;;;2.60;;
48667;SDS011;34453;52.198;5.004;2023-07-13T09:04:26;6.18;;;2.05;;
48667;SDS011;34453;52.198;5.004;2023-07-13T09:07:01;3.60;;;1.77;;
48667;SDS011;34453;52.198;5.004;2023-07-13T09:09:38;6.18;;;2.30;;
48667;SDS011;34453;52.198;5.004;2023-07-13T09:12:51;2.42;;;2.22;;
48667;SDS011;34453;52.198;5.004;2023-07-13T09:15:05;3.95;;;2.63;;
48667;SDS011;34453;52.198;5.004;2023-07-13T09:17:48;8.52;;;2.50;;
48667;SDS011;34453;52.198;5.004;2023-07-13T09:22:51;7.25;;;3.08;;
48667;SDS011;34453;52.198;5.004;2023-07-13T09:27:49;12.10;;;3.83;;
48667;SDS011;34453;52.198;5.004;2023-07-13T09:30:24;5.80;;;1.97;;
48667;SDS011;34453;52.198;5.004;2023-07-13T09:32:58;3.42;;;2.08;;
48667;SDS011;34453;52.198;5.004;2023-07-13T09:35:25;5.13;;;2.20;;
48667;SDS011;34453;52.198;5.004;2023-07-13T09:37:57;6.45;;;2.30;;
48667;SDS011;34453;52.198;5.004;2023-07-13T09:43:25;7.97;;;2.20;;
48667;SDS011;34453;52.198;5.004;2023-07-13T09:45:50;3.13;;;2.08;;
48667;SDS011;34453;52.198;5.004;2023-07-13T09:48:17;7.47;;;2.38;;
48667;SDS011;34453;52.198;5.004;2023-07-13T09:50:44;11.60;;;4.10;;
48667;SDS011;34453;52.198;5.004;2023-07-13T09:53:14;5.93;;;2.15;;
48667;SDS011;34453;52.198;5.004;2023-07-13T09:55:42;4.32;;;2.45;;
48667;SDS011;34453;52.198;5.004;2023-07-13T09:58:11;9.07;;;2.88;;
48667;SDS011;34453;52.198;5.004;2023-07-13T10:00:37;9.18;;;2.22;;
48667;SDS011;34453;52.198;5.004;2023-07-13T10:03:17;5.68;;;1.98;;
48667;SDS011;34453;52.198;5.004;2023-07-13T10:05:46;6.70;;;2.17;;
48667;SDS011;34453;52.198;5.004;2023-07-13T10:08:20;4.93;;;1.90;;
48667;SDS011;34453;52.198;5.004;2023-07-13T10:11:08;9.98;;;2.10;;
48667;SDS011;34453;52.198;5.004;2023-07-13T10:13:40;2.90;;;2.30;;
48667;SDS011;34453;52.198;5.004;2023-07-13T10:16:09;5.90;;;1.92;;
48667;SDS011;34453;52.198;5.004;2023-07-13T10:18:38;6.30;;;2.25;;
48667;SDS011;34453;52.198;5.004;2023-07-13T10:21:27;2.17;;;1.95;;
48667;SDS011;34453;52.198;5.004;2023-07-13T10:24:10;4.67;;;2.10;;
48667;SDS011;34453;52.198;5.004;2023-07-13T10:26:42;2.60;;;2.40;;
48667;SDS011;34453;52.198;5.004;2023-07-13T10:29:14;6.07;;;1.70;;
48667;SDS011;34453;52.198;5.004;2023-07-13T10:31:41;7.50;;;2.78;;
48667;SDS011;34453;52.198;5.004;2023-07-13T10:34:11;9.02;;;2.55;;
48667;SDS011;34453;52.198;5.004;2023-07-13T10:36:47;11.50;;;2.77;;
48667;SDS011;34453;52.198;5.004;2023-07-13T10:39:18;3.67;;;2.65;;
48667;SDS011;34453;52.198;5.004;2023-07-13T10:41:49;4.10;;;2.60;;
48667;SDS011;34453;52.198;5.004;2023-07-13T10:44:21;4.05;;;2.45;;
48667;SDS011;34453;52.198;5.004;2023-07-13T10:46:53;6.65;;;2.00;;
48667;SDS011;34453;52.198;5.004;2023-07-13T10:49:39;3.83;;;1.88;;
48667;SDS011;34453;52.198;5.004;2023-07-13T10:58:11;4.50;;;1.70;;
48667;SDS011;34453;52.198;5.004;2023-07-13T11:00:53;9.15;;;3.03;;
48667;SDS011;34453;52.198;5.004;2023-07-13T11:03:27;4.60;;;2.38;;
48667;SDS011;34453;52.198;5.004;2023-07-13T11:18:49;6.97;;;2.35;;
48667;SDS011;34453;52.198;5.004;2023-07-13T11:21:17;11.40;;;1.90;;
48667;SDS011;34453;52.198;5.004;2023-07-13T11:23:45;4.07;;;1.90;;
48667;SDS011;34453;52.198;5.004;2023-07-13T11:31:54;6.78;;;3.08;;
48667;SDS011;34453;52.198;5.004;2023-07-13T11:34:33;4.50;;;1.80;;
48667;SDS011;34453;52.198;5.004;2023-07-13T11:37:01;4.25;;;1.95;;
48667;SDS011;34453;52.198;5.004;2023-07-13T11:39:35;4.18;;;2.55;;
48667;SDS011;34453;52.198;5.004;2023-07-13T11:42:04;5.13;;;1.27;;
48667;SDS011;34453;52.198;5.004;2023-07-13T11:44:34;9.65;;;2.35;;
48667;SDS011;34453;52.198;5.004;2023-07-13T11:47:07;3.97;;;1.77;;
48667;SDS011;34453;52.198;5.004;2023-07-13T11:49:40;3.08;;;2.08;;
48667;SDS011;34453;52.198;5.004;2023-07-13T11:52:11;2.45;;;1.70;;
48667;SDS011;34453;52.198;5.004;2023-07-13T11:54:47;7.75;;;1.90;;
48667;SDS011;34453;52.198;5.004;2023-07-13T11:57:31;5.47;;;1.92;;
48667;SDS011;34453;52.198;5.004;2023-07-13T12:00:00;2.72;;;1.90;;
48667;SDS011;34453;52.198;5.004;2023-07-13T12:02:36;5.18;;;2.67;;
48667;SDS011;34453;52.198;5.004;2023-07-13T12:05:04;2.75;;;1.70;;
48667;SDS011;34453;52.198;5.004;2023-07-13T12:07:32;2.20;;;1.75;;
48667;SDS011;34453;52.198;5.004;2023-07-13T12:10:02;8.02;;;2.92;;
48667;SDS011;34453;52.198;5.004;2023-07-13T12:12:35;7.30;;;1.80;;
48667;SDS011;34453;52.198;5.004;2023-07-13T12:15:05;8.32;;;1.98;;
48667;SDS011;34453;52.198;5.004;2023-07-13T12:17:33;7.90;;;1.80;;
48667;SDS011;34453;52.198;5.004;2023-07-13T12:20:00;5.28;;;2.28;;
48667;SDS011;34453;52.198;5.004;2023-07-13T12:22:36;5.82;;;2.20;;
48667;SDS011;34453;52.198;5.004;2023-07-13T12:25:01;2.00;;;1.75;;
48667;SDS011;34453;52.198;5.004;2023-07-13T12:27:27;3.17;;;1.73;;
48667;SDS011;34453;52.198;5.004;2023-07-13T12:30:01;7.78;;;2.20;;
48667;SDS011;34453;52.198;5.004;2023-07-13T12:32:30;5.10;;;3.55;;
48667;SDS011;34453;52.198;5.004;2023-07-13T12:35:17;5.43;;;2.30;;
48667;SDS011;34453;52.198;5.004;2023-07-13T12:37:44;6.63;;;2.95;;
48667;SDS011;34453;52.198;5.004;2023-07-13T12:40:16;3.50;;;2.40;;
48667;SDS011;34453;52.198;5.004;2023-07-13T12:42:48;4.57;;;2.10;;
48667;SDS011;34453;52.198;5.004;2023-07-13T12:47:49;3.55;;;2.42;;
48667;SDS011;34453;52.198;5.004;2023-07-13T12:50:20;6.05;;;2.70;;
48667;SDS011;34453;52.198;5.004;2023-07-13T12:52:51;5.22;;;2.13;;
48667;SDS011;34453;52.198;5.004;2023-07-13T12:55:20;9.25;;;2.15;;
48667;SDS011;34453;52.198;5.004;2023-07-13T12:57:51;5.22;;;2.25;;
48667;SDS011;34453;52.198;5.004;2023-07-13T13:02:58;5.30;;;3.17;;
48667;SDS011;34453;52.198;5.004;2023-07-13T13:05:28;9.15;;;2.70;;
48667;SDS011;34453;52.198;5.004;2023-07-13T13:07:55;4.65;;;2.55;;
48667;SDS011;34453;52.198;5.004;2023-07-13T13:10:21;3.38;;;2.33;;
48667;SDS011;34453;52.198;5.004;2023-07-13T13:12:47;2.72;;;2.25;;
48667;SDS011;34453;52.198;5.004;2023-07-13T13:15:13;5.65;;;2.80;;
48667;SDS011;34453;52.198;5.004;2023-07-13T13:17:39;4.10;;;2.30;;
48667;SDS011;34453;52.198;5.004;2023-07-13T13:20:15;4.60;;;2.60;;
48667;SDS011;34453;52.198;5.004;2023-07-13T13:22:42;4.55;;;2.17;;
48667;SDS011;34453;52.198;5.004;2023-07-13T13:25:09;4.18;;;2.45;;
48667;SDS011;34453;52.198;5.004;2023-07-13T13:27:36;5.75;;;3.08;;
48667;SDS011;34453;52.198;5.004;2023-07-13T13:33:00;4.53;;;1.75;;
48667;SDS011;34453;52.198;5.004;2023-07-13T13:35:30;5.25;;;2.33;;
48667;SDS011;34453;52.198;5.004;2023-07-13T13:38:02;4.55;;;2.10;;
48667;SDS011;34453;52.198;5.004;2023-07-13T13:40:29;3.65;;;1.85;;
48667;SDS011;34453;52.198;5.004;2023-07-13T13:43:01;7.50;;;1.98;;
48667;SDS011;34453;52.198;5.004;2023-07-13T13:45:53;10.10;;;2.53;;
48667;SDS011;34453;52.198;5.004;2023-07-13T13:48:33;7.00;;;2.15;;
48667;SDS011;34453;52.198;5.004;2023-07-13T13:51:28;4.30;;;1.70;;
48667;SDS011;34453;52.198;5.004;2023-07-13T13:53:59;5.80;;;1.52;;
48667;SDS011;34453;52.198;5.004;2023-07-13T13:56:24;7.80;;;1.42;;
48667;SDS011;34453;52.198;5.004;2023-07-13T13:58:57;3.08;;;1.35;;
48667;SDS011;34453;52.198;5.004;2023-07-13T14:01:25;2.47;;;1.80;;
48667;SDS011;34453;52.198;5.004;2023-07-13T14:03:51;2.03;;;1.70;;
48667;SDS011;34453;52.198;5.004;2023-07-13T14:06:17;4.47;;;1.92;;
48667;SDS011;34453;52.198;5.004;2023-07-13T14:08:42;2.47;;;1.58;;
48667;SDS011;34453;52.198;5.004;2023-07-13T14:11:15;7.25;;;1.73;;
48667;SDS011;34453;52.198;5.004;2023-07-13T14:13:44;3.45;;;1.58;;
48667;SDS011;34453;52.198;5.004;2023-07-13T14:16:17;9.35;;;2.38;;
48667;SDS011;34453;52.198;5.004;2023-07-13T14:18:45;1.38;;;1.27;;
48667;SDS011;34453;52.198;5.004;2023-07-13T14:21:15;4.03;;;1.88;;
48667;SDS011;34453;52.198;5.004;2023-07-13T14:23:45;1.75;;;1.65;;
48667;SDS011;34453;52.198;5.004;2023-07-13T14:26:12;5.28;;;2.10;;
48667;SDS011;34453;52.198;5.004;2023-07-13T14:28:45;2.97;;;1.60;;
48667;SDS011;34453;52.198;5.004;2023-07-13T14:31:14;3.80;;;1.38;;
48667;SDS011;34453;52.198;5.004;2023-07-13T14:33:41;4.63;;;1.15;;
48667;SDS011;34453;52.198;5.004;2023-07-13T14:36:26;5.95;;;1.88;;
48667;SDS011;34453;52.198;5.004;2023-07-13T14:39:20;2.97;;;1.75;;
48667;SDS011;34453;52.198;5.004;2023-07-13T14:41:49;4.15;;;1.95;;
48667;SDS011;34453;52.198;5.004;2023-07-13T14:44:17;5.32;;;2.00;;
48667;SDS011;34453;52.198;5.004;2023-07-13T14:46:45;2.22;;;1.67;;
48667;SDS011;34453;52.198;5.004;2023-07-13T14:51:57;6.65;;;1.65;;
48667;SDS011;34453;52.198;5.004;2023-07-13T14:54:25;2.15;;;1.27;;
48667;SDS011;34453;52.198;5.004;2023-07-13T14:56:51;2.72;;;1.52;;
48667;SDS011;34453;52.198;5.004;2023-07-13T14:59:16;3.47;;;1.15;;
48667;SDS011;34453;52.198;5.004;2023-07-13T15:01:45;5.25;;;1.75;;
48667;SDS011;34453;52.198;5.004;2023-07-13T15:04:13;2.75;;;1.42;;
48667;SDS011;34453;52.198;5.004;2023-07-13T15:06:55;2.08;;;1.40;;
48667;SDS011;34453;52.198;5.004;2023-07-13T15:09:22;2.25;;;1.30;;
48667;SDS011;34453;52.198;5.004;2023-07-13T15:11:51;1.15;;;1.05;;
48667;SDS011;34453;52.198;5.004;2023-07-13T15:14:20;4.68;;;2.13;;
48667;SDS011;34453;52.198;5.004;2023-07-13T15:16:46;1.80;;;1.70;;
48667;SDS011;34453;52.198;5.004;2023-07-13T15:19:16;4.78;;;1.80;;
48667;SDS011;34453;52.198;5.004;2023-07-13T15:21:42;4.57;;;1.50;;
48667;SDS011;34453;52.198;5.004;2023-07-13T15:24:08;4.35;;;1.90;;
48667;SDS011;34453;52.198;5.004;2023-07-13T15:26:35;2.47;;;1.92;;
48667;SDS011;34453;52.198;5.004;2023-07-13T15:29:01;2.72;;;1.33;;
48667;SDS011;34453;52.198;5.004;2023-07-13T15:31:27;2.00;;;1.80;;
48667;SDS011;34453;52.198;5.004;2023-07-13T15:33:54;10.30;;;2.05;;
48667;SDS011;34453;52.198;5.004;2023-07-13T15:36:21;3.90;;;1.55;;
48667;SDS011;34453;52.198;5.004;2023-07-13T15:38:47;4.18;;;1.40;;
48667;SDS011;34453;52.198;5.004;2023-07-13T15:41:16;1.88;;;1.50;;